sensor_id;sensor_type;location;lat;lon;timestamp;P1;durP1;ratioP1;P2;durP2;ratioP2
31224;SDS011;17847;31.524;74.366;2022-10-30T00:02:27;137.48;;;84.05;;
31224;SDS011;17847;31.524;74.366;2022-10-30T00:05:09;133.82;;;80.35;;
31224;SDS011;17847;31.524;74.366;2022-10-30T00:08:00;142.15;;;81.57;;
31224;SDS011;17847;31.524;74.366;2022-10-30T00:10:43;143.45;;;83.90;;
31224;SDS011;17847;31.524;74.366;2022-10-30T00:13:41;148.85;;;85.65;;
31224;SDS011;17847;31.524;74.366;2022-10-30T00:16:17;140.30;;;83.40;;
31224;SDS011;17847;31.524;74.366;2022-10-30T00:19:13;150.45;;;85.10;;
31224;SDS011;17847;31.524;74.366;2022-10-30T00:22:08;149.77;;;85.85;;
31224;SDS011;17847;31.524;74.366;2022-10-30T00:25:04;143.95;;;83.50;;
31224;SDS011;17847;31.524;74.366;2022-10-30T00:27:46;138.98;;;85.65;;
31224;SDS011;17847;31.524;74.366;2022-10-30T00:30:35;142.90;;;85.22;;
31224;SDS011;17847;31.524;74.366;2022-10-30T00:33:18;150.35;;;85.60;;
31224;SDS011;17847;31.524;74.366;2022-10-30T00:36:09;139.75;;;84.07;;
31224;SDS011;17847;31.524;74.366;2022-10-30T00:38:51;152.15;;;84.88;;
31224;SDS011;17847;31.524;74.366;2022-10-30T00:41:40;139.23;;;85.78;;
31224;SDS011;17847;31.524;74.366;2022-10-30T00:44:36;145.40;;;86.32;;
31224;SDS011;17847;31.524;74.366;2022-10-30T00:47:38;146.85;;;86.85;;
31224;SDS011;17847;31.524;74.366;2022-10-30T00:50:26;143.50;;;85.47;;
31224;SDS011;17847;31.524;74.366;2022-10-30T00:53:21;150.90;;;88.20;;
31224;SDS011;17847;31.524;74.366;2022-10-30T00:56:05;154.23;;;89.18;;
31224;SDS011;17847;31.524;74.366;2022-10-30T00:58:57;148.32;;;90.30;;
31224;SDS011;17847;31.524;74.366;2022-10-30T01:01:43;149.20;;;88.57;;
31224;SDS011;17847;31.524;74.366;2022-10-30T01:04:41;144.45;;;87.53;;
31224;SDS011;17847;31.524;74.366;2022-10-30T01:07:25;149.15;;;90.13;;
31224;SDS011;17847;31.524;74.366;2022-10-30T01:10:14;150.35;;;89.53;;
31224;SDS011;17847;31.524;74.366;2022-10-30T01:12:58;152.77;;;92.38;;
31224;SDS011;17847;31.524;74.366;2022-10-30T01:22:34;142.25;;;86.10;;
31224;SDS011;17847;31.524;74.366;2022-10-30T01:28:19;135.05;;;86.95;;
31224;SDS011;17847;31.524;74.366;2022-10-30T01:40:33;145.20;;;89.55;;
31224;SDS011;17847;31.524;74.366;2022-10-30T01:43:16;143.27;;;88.63;;
31224;SDS011;17847;31.524;74.366;2022-10-30T01:55:36;157.73;;;91.05;;
31224;SDS011;17847;31.524;74.366;2022-10-30T01:58:36;152.75;;;91.18;;
31224;SDS011;17847;31.524;74.366;2022-10-30T02:01:22;145.93;;;93.45;;
31224;SDS011;17847;31.524;74.366;2022-10-30T02:04:12;157.40;;;95.80;;
31224;SDS011;17847;31.524;74.366;2022-10-30T02:06:55;146.38;;;94.95;;
31224;SDS011;17847;31.524;74.366;2022-10-30T02:09:50;157.32;;;100.65;;
31224;SDS011;17847;31.524;74.366;2022-10-30T02:12:28;171.88;;;100.95;;
31224;SDS011;17847;31.524;74.366;2022-10-30T02:15:24;167.30;;;101.90;;
31224;SDS011;17847;31.524;74.366;2022-10-30T02:18:06;177.27;;;104.43;;
31224;SDS011;17847;31.524;74.366;2022-10-30T02:21:02;171.68;;;108.35;;
31224;SDS011;17847;31.524;74.366;2022-10-30T02:23:45;179.68;;;112.25;;
31224;SDS011;17847;31.524;74.366;2022-10-30T02:26:34;176.35;;;111.80;;
31224;SDS011;17847;31.524;74.366;2022-10-30T02:29:16;170.10;;;108.55;;
31224;SDS011;17847;31.524;74.366;2022-10-30T02:32:05;182.55;;;113.82;;
31224;SDS011;17847;31.524;74.366;2022-10-30T02:34:47;176.77;;;117.43;;
31224;SDS011;17847;31.524;74.366;2022-10-30T02:37:36;188.68;;;119.57;;
31224;SDS011;17847;31.524;74.366;2022-10-30T02:40:19;193.30;;;119.63;;
31224;SDS011;17847;31.524;74.366;2022-10-30T02:43:08;202.77;;;121.95;;
31224;SDS011;17847;31.524;74.366;2022-10-30T02:45:51;191.75;;;124.75;;
31224;SDS011;17847;31.524;74.366;2022-10-30T02:48:47;204.63;;;129.77;;
31224;SDS011;17847;31.524;74.366;2022-10-30T02:51:32;197.13;;;127.55;;
31224;SDS011;17847;31.524;74.366;2022-10-30T02:54:21;193.50;;;127.85;;
31224;SDS011;17847;31.524;74.366;2022-10-30T02:57:02;192.50;;;128.02;;
31224;SDS011;17847;31.524;74.366;2022-10-30T02:59:52;202.27;;;129.82;;
31224;SDS011;17847;31.524;74.366;2022-10-30T03:02:28;194.60;;;131.05;;
31224;SDS011;17847;31.524;74.366;2022-10-30T03:05:25;198.00;;;130.63;;
31224;SDS011;17847;31.524;74.366;2022-10-30T03:08:00;203.95;;;129.88;;
31224;SDS011;17847;31.524;74.366;2022-10-30T03:11:00;204.25;;;129.98;;
31224;SDS011;17847;31.524;74.366;2022-10-30T03:13:40;207.32;;;131.07;;
31224;SDS011;17847;31.524;74.366;2022-10-30T03:16:36;209.10;;;136.27;;
31224;SDS011;17847;31.524;74.366;2022-10-30T03:19:18;205.82;;;132.25;;
31224;SDS011;17847;31.524;74.366;2022-10-30T03:22:07;221.25;;;134.68;;
31224;SDS011;17847;31.524;74.366;2022-10-30T03:24:49;211.57;;;132.90;;
31224;SDS011;17847;31.524;74.366;2022-10-30T03:27:39;222.17;;;140.90;;
31224;SDS011;17847;31.524;74.366;2022-10-30T03:30:22;207.57;;;134.80;;
31224;SDS011;17847;31.524;74.366;2022-10-30T03:33:17;216.77;;;135.48;;
31224;SDS011;17847;31.524;74.366;2022-10-30T03:35:52;212.52;;;132.18;;
31224;SDS011;17847;31.524;74.366;2022-10-30T03:38:48;215.88;;;137.30;;
31224;SDS011;17847;31.524;74.366;2022-10-30T03:41:31;208.57;;;134.15;;
31224;SDS011;17847;31.524;74.366;2022-10-30T03:44:20;203.73;;;131.80;;
31224;SDS011;17847;31.524;74.366;2022-10-30T03:47:03;202.43;;;133.05;;
31224;SDS011;17847;31.524;74.366;2022-10-30T03:49:56;204.38;;;132.85;;
31224;SDS011;17847;31.524;74.366;2022-10-30T03:52:38;204.63;;;134.68;;
31224;SDS011;17847;31.524;74.366;2022-10-30T03:55:27;206.65;;;135.40;;
31224;SDS011;17847;31.524;74.366;2022-10-30T03:58:11;205.70;;;133.77;;
31224;SDS011;17847;31.524;74.366;2022-10-30T04:01:04;210.40;;;131.02;;
31224;SDS011;17847;31.524;74.366;2022-10-30T04:03:53;206.57;;;132.77;;
31224;SDS011;17847;31.524;74.366;2022-10-30T04:06:42;203.85;;;131.52;;
31224;SDS011;17847;31.524;74.366;2022-10-30T04:09:24;202.38;;;130.93;;
31224;SDS011;17847;31.524;74.366;2022-10-30T04:12:13;200.23;;;127.05;;
31224;SDS011;17847;31.524;74.366;2022-10-30T04:14:55;197.32;;;129.02;;
31224;SDS011;17847;31.524;74.366;2022-10-30T04:17:48;191.65;;;126.47;;
31224;SDS011;17847;31.524;74.366;2022-10-30T04:20:40;200.15;;;126.65;;
31224;SDS011;17847;31.524;74.366;2022-10-30T04:23:22;187.40;;;118.30;;
31224;SDS011;17847;31.524;74.366;2022-10-30T04:26:11;180.43;;;118.60;;
31224;SDS011;17847;31.524;74.366;2022-10-30T04:28:54;181.95;;;116.85;;
31224;SDS011;17847;31.524;74.366;2022-10-30T04:31:50;185.90;;;117.43;;
31224;SDS011;17847;31.524;74.366;2022-10-30T04:34:32;186.80;;;116.68;;
31224;SDS011;17847;31.524;74.366;2022-10-30T04:37:21;174.35;;;115.00;;
31224;SDS011;17847;31.524;74.366;2022-10-30T04:40:03;172.73;;;112.47;;
31224;SDS011;17847;31.524;74.366;2022-10-30T04:42:59;182.13;;;114.50;;
31224;SDS011;17847;31.524;74.366;2022-10-30T04:45:38;174.38;;;113.38;;
31224;SDS011;17847;31.524;74.366;2022-10-30T04:48:34;172.77;;;114.75;;
31224;SDS011;17847;31.524;74.366;2022-10-30T04:51:19;177.27;;;114.68;;
31224;SDS011;17847;31.524;74.366;2022-10-30T04:54:11;166.57;;;103.50;;
31224;SDS011;17847;31.524;74.366;2022-10-30T04:56:56;173.98;;;104.07;;
31224;SDS011;17847;31.524;74.366;2022-10-30T04:59:47;149.95;;;102.97;;
31224;SDS011;17847;31.524;74.366;2022-10-30T05:02:31;152.43;;;98.50;;
31224;SDS011;17847;31.524;74.366;2022-10-30T05:05:23;145.98;;;96.18;;
31224;SDS011;17847;31.524;74.366;2022-10-30T05:08:07;135.82;;;91.75;;
31224;SDS011;17847;31.524;74.366;2022-10-30T05:10:55;149.50;;;94.63;;
31224;SDS011;17847;31.524;74.366;2022-10-30T05:13:37;159.52;;;99.28;;
31224;SDS011;17847;31.524;74.366;2022-10-30T05:16:33;168.60;;;104.10;;
31224;SDS011;17847;31.524;74.366;2022-10-30T05:19:08;162.15;;;103.70;;
31224;SDS011;17847;31.524;74.366;2022-10-30T05:22:05;161.48;;;105.07;;
31224;SDS011;17847;31.524;74.366;2022-10-30T05:25:00;192.77;;;111.07;;
31224;SDS011;17847;31.524;74.366;2022-10-30T05:27:43;162.15;;;105.03;;
31224;SDS011;17847;31.524;74.366;2022-10-30T05:30:33;171.68;;;109.13;;
31224;SDS011;17847;31.524;74.366;2022-10-30T05:33:34;165.15;;;99.03;;
31224;SDS011;17847;31.524;74.366;2022-10-30T05:36:25;136.00;;;84.88;;
31224;SDS011;17847;31.524;74.366;2022-10-30T05:39:09;120.53;;;72.68;;
31224;SDS011;17847;31.524;74.366;2022-10-30T05:41:57;116.68;;;73.78;;
31224;SDS011;17847;31.524;74.366;2022-10-30T05:44:45;124.03;;;77.18;;
31224;SDS011;17847;31.524;74.366;2022-10-30T05:47:41;117.03;;;73.00;;
31224;SDS011;17847;31.524;74.366;2022-10-30T05:50:24;111.38;;;74.90;;
31224;SDS011;17847;31.524;74.366;2022-10-30T05:53:23;123.22;;;75.38;;
31224;SDS011;17847;31.524;74.366;2022-10-30T05:56:07;112.18;;;72.53;;
31224;SDS011;17847;31.524;74.366;2022-10-30T05:59:03;111.50;;;66.25;;
31224;SDS011;17847;31.524;74.366;2022-10-30T06:01:45;117.40;;;67.68;;
31224;SDS011;17847;31.524;74.366;2022-10-30T06:04:34;103.25;;;66.22;;
31224;SDS011;17847;31.524;74.366;2022-10-30T06:07:12;110.22;;;63.60;;
31224;SDS011;17847;31.524;74.366;2022-10-30T06:10:07;108.43;;;62.95;;
31224;SDS011;17847;31.524;74.366;2022-10-30T06:13:19;95.22;;;63.65;;
31224;SDS011;17847;31.524;74.366;2022-10-30T06:16:14;121.68;;;66.57;;
31224;SDS011;17847;31.524;74.366;2022-10-30T06:19:29;113.63;;;65.43;;
31224;SDS011;17847;31.524;74.366;2022-10-30T06:25:47;102.35;;;66.70;;
31224;SDS011;17847;31.524;74.366;2022-10-30T06:28:45;117.25;;;70.97;;
31224;SDS011;17847;31.524;74.366;2022-10-30T06:31:28;128.52;;;77.57;;
31224;SDS011;17847;31.524;74.366;2022-10-30T06:34:18;136.82;;;78.80;;
31224;SDS011;17847;31.524;74.366;2022-10-30T06:37:01;131.43;;;86.50;;
31224;SDS011;17847;31.524;74.366;2022-10-30T06:39:50;141.73;;;86.73;;
31224;SDS011;17847;31.524;74.366;2022-10-30T06:42:51;148.27;;;85.53;;
31224;SDS011;17847;31.524;74.366;2022-10-30T06:48:35;116.00;;;74.95;;
31224;SDS011;17847;31.524;74.366;2022-10-30T06:51:24;131.52;;;83.57;;
31224;SDS011;17847;31.524;74.366;2022-10-30T06:54:06;124.82;;;82.25;;
31224;SDS011;17847;31.524;74.366;2022-10-30T06:57:18;128.57;;;76.72;;
31224;SDS011;17847;31.524;74.366;2022-10-30T07:00:23;139.85;;;84.38;;
31224;SDS011;17847;31.524;74.366;2022-10-30T07:03:43;136.20;;;84.63;;
31224;SDS011;17847;31.524;74.366;2022-10-30T07:06:25;133.05;;;83.53;;
31224;SDS011;17847;31.524;74.366;2022-10-30T07:09:23;137.98;;;83.40;;
31224;SDS011;17847;31.524;74.366;2022-10-30T07:11:59;130.38;;;78.88;;
31224;SDS011;17847;31.524;74.366;2022-10-30T07:15:16;141.90;;;79.75;;
31224;SDS011;17847;31.524;74.366;2022-10-30T07:18:13;134.55;;;82.38;;
31224;SDS011;17847;31.524;74.366;2022-10-30T07:21:04;130.20;;;79.10;;
31224;SDS011;17847;31.524;74.366;2022-10-30T07:23:46;130.85;;;76.53;;
31224;SDS011;17847;31.524;74.366;2022-10-30T07:27:08;129.07;;;77.47;;
31224;SDS011;17847;31.524;74.366;2022-10-30T07:29:49;141.27;;;82.65;;
31224;SDS011;17847;31.524;74.366;2022-10-30T07:33:14;129.55;;;77.88;;
31224;SDS011;17847;31.524;74.366;2022-10-30T07:36:08;110.95;;;64.32;;
31224;SDS011;17847;31.524;74.366;2022-10-30T07:39:21;93.43;;;60.10;;
31224;SDS011;17847;31.524;74.366;2022-10-30T07:42:05;90.95;;;59.70;;
31224;SDS011;17847;31.524;74.366;2022-10-30T07:45:18;97.20;;;60.17;;
31224;SDS011;17847;31.524;74.366;2022-10-30T07:48:13;90.80;;;58.13;;
31224;SDS011;17847;31.524;74.366;2022-10-30T07:51:27;105.30;;;60.28;;
31224;SDS011;17847;31.524;74.366;2022-10-30T07:54:12;105.70;;;61.78;;
31224;SDS011;17847;31.524;74.366;2022-10-30T07:57:02;111.50;;;64.65;;
31224;SDS011;17847;31.524;74.366;2022-10-30T08:00:04;110.65;;;70.97;;
31224;SDS011;17847;31.524;74.366;2022-10-30T08:03:04;114.55;;;70.53;;
31224;SDS011;17847;31.524;74.366;2022-10-30T08:05:55;110.22;;;65.25;;
31224;SDS011;17847;31.524;74.366;2022-10-30T08:08:44;99.47;;;62.42;;
31224;SDS011;17847;31.524;74.366;2022-10-30T08:11:27;103.30;;;64.80;;
31224;SDS011;17847;31.524;74.366;2022-10-30T08:14:16;107.33;;;65.83;;
31224;SDS011;17847;31.524;74.366;2022-10-30T08:16:58;101.38;;;64.03;;
31224;SDS011;17847;31.524;74.366;2022-10-30T08:19:51;97.70;;;63.17;;
31224;SDS011;17847;31.524;74.366;2022-10-30T08:22:45;111.93;;;66.32;;
31224;SDS011;17847;31.524;74.366;2022-10-30T08:25:29;111.45;;;65.60;;
31224;SDS011;17847;31.524;74.366;2022-10-30T08:28:18;117.03;;;63.97;;
31224;SDS011;17847;31.524;74.366;2022-10-30T08:31:08;108.43;;;62.10;;
31224;SDS011;17847;31.524;74.366;2022-10-30T08:34:09;117.82;;;64.25;;
31224;SDS011;17847;31.524;74.366;2022-10-30T08:36:53;93.57;;;60.35;;
31224;SDS011;17847;31.524;74.366;2022-10-30T08:39:42;95.43;;;57.13;;
31224;SDS011;17847;31.524;74.366;2022-10-30T08:42:39;96.50;;;54.55;;
31224;SDS011;17847;31.524;74.366;2022-10-30T08:48:13;91.40;;;53.55;;
31224;SDS011;17847;31.524;74.366;2022-10-30T08:51:11;89.93;;;50.70;;
31224;SDS011;17847;31.524;74.366;2022-10-30T08:53:52;96.97;;;48.85;;
31224;SDS011;17847;31.524;74.366;2022-10-30T08:56:41;76.90;;;48.58;;
31224;SDS011;17847;31.524;74.366;2022-10-30T08:59:23;73.95;;;47.08;;
31224;SDS011;17847;31.524;74.366;2022-10-30T09:02:18;83.15;;;45.95;;
31224;SDS011;17847;31.524;74.366;2022-10-30T09:05:11;77.35;;;45.60;;
31224;SDS011;17847;31.524;74.366;2022-10-30T09:08:33;74.15;;;47.58;;
31224;SDS011;17847;31.524;74.366;2022-10-30T09:11:28;91.57;;;46.67;;
31224;SDS011;17847;31.524;74.366;2022-10-30T09:14:24;69.97;;;45.67;;
31224;SDS011;17847;31.524;74.366;2022-10-30T09:17:07;71.70;;;42.53;;
31224;SDS011;17847;31.524;74.366;2022-10-30T09:22:39;65.55;;;41.33;;
31224;SDS011;17847;31.524;74.366;2022-10-30T09:25:35;71.20;;;43.13;;
31224;SDS011;17847;31.524;74.366;2022-10-30T09:28:50;68.55;;;41.97;;
31224;SDS011;17847;31.524;74.366;2022-10-30T09:31:38;65.97;;;40.60;;
31224;SDS011;17847;31.524;74.366;2022-10-30T09:34:30;70.82;;;39.70;;
31224;SDS011;17847;31.524;74.366;2022-10-30T09:37:19;65.28;;;35.30;;
31224;SDS011;17847;31.524;74.366;2022-10-30T09:44:33;57.20;;;34.22;;
31224;SDS011;17847;31.524;74.366;2022-10-30T10:04:42;66.07;;;39.78;;
31224;SDS011;17847;31.524;74.366;2022-10-30T10:07:48;58.63;;;39.40;;
31224;SDS011;17847;31.524;74.366;2022-10-30T10:11:03;67.10;;;38.70;;
31224;SDS011;17847;31.524;74.366;2022-10-30T10:13:59;64.95;;;38.17;;
31224;SDS011;17847;31.524;74.366;2022-10-30T10:16:51;55.72;;;37.22;;
31224;SDS011;17847;31.524;74.366;2022-10-30T10:19:37;65.97;;;36.20;;
31224;SDS011;17847;31.524;74.366;2022-10-30T10:22:46;58.92;;;38.40;;
31224;SDS011;17847;31.524;74.366;2022-10-30T10:25:43;63.78;;;36.90;;
31224;SDS011;17847;31.524;74.366;2022-10-30T10:28:39;67.88;;;40.35;;
31224;SDS011;17847;31.524;74.366;2022-10-30T10:41:00;64.63;;;41.28;;
31224;SDS011;17847;31.524;74.366;2022-10-30T10:53:21;72.05;;;42.03;;
31224;SDS011;17847;31.524;74.366;2022-10-30T10:56:24;75.10;;;44.22;;
31224;SDS011;17847;31.524;74.366;2022-10-30T10:59:11;69.63;;;44.13;;
31224;SDS011;17847;31.524;74.366;2022-10-30T11:02:23;63.97;;;42.28;;
31224;SDS011;17847;31.524;74.366;2022-10-30T11:08:29;77.07;;;44.10;;
31224;SDS011;17847;31.524;74.366;2022-10-30T11:11:13;75.63;;;44.67;;
31224;SDS011;17847;31.524;74.366;2022-10-30T11:14:04;75.57;;;44.60;;
31224;SDS011;17847;31.524;74.366;2022-10-30T11:17:25;76.88;;;45.97;;
31224;SDS011;17847;31.524;74.366;2022-10-30T11:20:51;77.38;;;45.33;;
31224;SDS011;17847;31.524;74.366;2022-10-30T11:23:50;85.40;;;46.60;;
31224;SDS011;17847;31.524;74.366;2022-10-30T11:26:33;83.65;;;47.05;;
31224;SDS011;17847;31.524;74.366;2022-10-30T11:29:23;84.75;;;49.38;;
31224;SDS011;17847;31.524;74.366;2022-10-30T11:32:10;82.70;;;46.75;;
31224;SDS011;17847;31.524;74.366;2022-10-30T11:37:49;75.05;;;45.90;;
31224;SDS011;17847;31.524;74.366;2022-10-30T11:40:58;76.00;;;47.47;;
31224;SDS011;17847;31.524;74.366;2022-10-30T11:43:43;94.18;;;50.50;;
31224;SDS011;17847;31.524;74.366;2022-10-30T11:46:33;86.72;;;49.45;;
31224;SDS011;17847;31.524;74.366;2022-10-30T11:49:30;95.07;;;48.72;;
31224;SDS011;17847;31.524;74.366;2022-10-30T11:52:45;86.38;;;48.90;;
31224;SDS011;17847;31.524;74.366;2022-10-30T11:55:38;86.90;;;48.35;;
31224;SDS011;17847;31.524;74.366;2022-10-30T11:58:34;79.57;;;47.63;;
31224;SDS011;17847;31.524;74.366;2022-10-30T12:01:32;98.28;;;50.83;;
31224;SDS011;17847;31.524;74.366;2022-10-30T12:04:29;82.72;;;48.90;;
31224;SDS011;17847;31.524;74.366;2022-10-30T12:07:23;92.65;;;48.42;;
31224;SDS011;17847;31.524;74.366;2022-10-30T12:10:26;97.65;;;49.38;;
31224;SDS011;17847;31.524;74.366;2022-10-30T12:13:03;105.38;;;52.83;;
31224;SDS011;17847;31.524;74.366;2022-10-30T12:16:07;90.38;;;50.85;;
31224;SDS011;17847;31.524;74.366;2022-10-30T12:19:04;102.03;;;51.78;;
31224;SDS011;17847;31.524;74.366;2022-10-30T12:21:56;93.80;;;52.25;;
31224;SDS011;17847;31.524;74.366;2022-10-30T12:24:39;93.68;;;50.80;;
31224;SDS011;17847;31.524;74.366;2022-10-30T12:27:38;107.65;;;51.55;;
31224;SDS011;17847;31.524;74.366;2022-10-30T12:30:20;98.78;;;52.65;;
31224;SDS011;17847;31.524;74.366;2022-10-30T12:33:16;93.07;;;51.95;;
31224;SDS011;17847;31.524;74.366;2022-10-30T12:36:07;93.70;;;52.63;;
31224;SDS011;17847;31.524;74.366;2022-10-30T12:39:15;94.45;;;53.05;;
31224;SDS011;17847;31.524;74.366;2022-10-30T12:42:07;107.15;;;53.60;;
31224;SDS011;17847;31.524;74.366;2022-10-30T12:45:12;102.15;;;53.33;;
31224;SDS011;17847;31.524;74.366;2022-10-30T12:51:06;106.72;;;53.97;;
31224;SDS011;17847;31.524;74.366;2022-10-30T12:54:08;94.57;;;51.78;;
31224;SDS011;17847;31.524;74.366;2022-10-30T12:57:30;99.03;;;53.17;;
31224;SDS011;17847;31.524;74.366;2022-10-30T13:00:17;99.72;;;54.83;;
31224;SDS011;17847;31.524;74.366;2022-10-30T13:03:23;100.95;;;52.83;;
31224;SDS011;17847;31.524;74.366;2022-10-30T13:06:19;91.70;;;53.88;;
31224;SDS011;17847;31.524;74.366;2022-10-30T13:09:17;102.07;;;53.55;;
31224;SDS011;17847;31.524;74.366;2022-10-30T13:12:11;105.10;;;52.90;;
31224;SDS011;17847;31.524;74.366;2022-10-30T13:15:17;93.97;;;54.20;;
31224;SDS011;17847;31.524;74.366;2022-10-30T13:24:10;92.25;;;54.15;;
31224;SDS011;17847;31.524;74.366;2022-10-30T13:27:04;109.30;;;55.40;;
31224;SDS011;17847;31.524;74.366;2022-10-30T13:30:00;103.38;;;56.80;;
31224;SDS011;17847;31.524;74.366;2022-10-30T13:54:42;108.47;;;59.95;;
31224;SDS011;17847;31.524;74.366;2022-10-30T13:57:59;109.57;;;60.58;;
31224;SDS011;17847;31.524;74.366;2022-10-30T14:00:58;105.85;;;61.15;;
31224;SDS011;17847;31.524;74.366;2022-10-30T14:04:04;113.35;;;61.03;;
31224;SDS011;17847;31.524;74.366;2022-10-30T14:06:49;102.35;;;63.30;;
31224;SDS011;17847;31.524;74.366;2022-10-30T14:19:05;107.50;;;62.97;;
31224;SDS011;17847;31.524;74.366;2022-10-30T14:22:02;109.28;;;64.97;;
31224;SDS011;17847;31.524;74.366;2022-10-30T14:24:57;110.82;;;61.03;;
31224;SDS011;17847;31.524;74.366;2022-10-30T14:27:40;121.53;;;67.75;;
31224;SDS011;17847;31.524;74.366;2022-10-30T14:30:36;108.25;;;65.18;;
31224;SDS011;17847;31.524;74.366;2022-10-30T14:39:27;116.85;;;68.65;;
31224;SDS011;17847;31.524;74.366;2022-10-30T14:51:49;136.25;;;73.32;;
31224;SDS011;17847;31.524;74.366;2022-10-30T14:57:45;119.95;;;72.45;;
31224;SDS011;17847;31.524;74.366;2022-10-30T15:07:22;134.68;;;75.85;;
31224;SDS011;17847;31.524;74.366;2022-10-30T15:10:10;128.05;;;76.32;;
31224;SDS011;17847;31.524;74.366;2022-10-30T15:16:06;139.55;;;78.38;;
31224;SDS011;17847;31.524;74.366;2022-10-30T15:19:03;133.30;;;79.03;;
31224;SDS011;17847;31.524;74.366;2022-10-30T15:21:49;134.52;;;80.07;;
31224;SDS011;17847;31.524;74.366;2022-10-30T15:24:40;138.57;;;81.15;;
31224;SDS011;17847;31.524;74.366;2022-10-30T15:27:16;155.07;;;79.43;;
31224;SDS011;17847;31.524;74.366;2022-10-30T15:30:18;142.32;;;80.20;;
31224;SDS011;17847;31.524;74.366;2022-10-30T15:33:02;140.85;;;80.97;;
31224;SDS011;17847;31.524;74.366;2022-10-30T15:36:17;139.90;;;82.57;;
31224;SDS011;17847;31.524;74.366;2022-10-30T15:39:18;134.85;;;81.22;;
31224;SDS011;17847;31.524;74.366;2022-10-30T15:41:55;139.45;;;80.82;;
31224;SDS011;17847;31.524;74.366;2022-10-30T15:44:53;162.55;;;87.13;;
31224;SDS011;17847;31.524;74.366;2022-10-30T15:47:34;145.48;;;85.95;;
31224;SDS011;17847;31.524;74.366;2022-10-30T15:50:25;141.43;;;87.38;;
31224;SDS011;17847;31.524;74.366;2022-10-30T15:53:17;131.30;;;84.88;;
31224;SDS011;17847;31.524;74.366;2022-10-30T15:56:11;151.25;;;83.63;;
31224;SDS011;17847;31.524;74.366;2022-10-30T15:59:03;140.10;;;85.53;;
31224;SDS011;17847;31.524;74.366;2022-10-30T16:02:00;145.98;;;83.85;;
31224;SDS011;17847;31.524;74.366;2022-10-30T16:04:36;154.73;;;88.40;;
31224;SDS011;17847;31.524;74.366;2022-10-30T16:07:32;158.32;;;88.63;;
31224;SDS011;17847;31.524;74.366;2022-10-30T16:10:08;147.13;;;86.78;;
31224;SDS011;17847;31.524;74.366;2022-10-30T16:13:04;150.52;;;89.32;;
31224;SDS011;17847;31.524;74.366;2022-10-30T16:15:39;165.82;;;90.40;;
31224;SDS011;17847;31.524;74.366;2022-10-30T16:18:36;144.30;;;89.47;;
31224;SDS011;17847;31.524;74.366;2022-10-30T16:21:13;157.88;;;90.28;;
31224;SDS011;17847;31.524;74.366;2022-10-30T16:24:14;153.98;;;90.88;;
31224;SDS011;17847;31.524;74.366;2022-10-30T16:27:06;168.00;;;92.32;;
31224;SDS011;17847;31.524;74.366;2022-10-30T16:33:10;156.93;;;94.28;;
31224;SDS011;17847;31.524;74.366;2022-10-30T16:35:53;170.38;;;99.60;;
31224;SDS011;17847;31.524;74.366;2022-10-30T16:38:45;162.27;;;97.35;;
31224;SDS011;17847;31.524;74.366;2022-10-30T16:41:30;177.98;;;102.15;;
31224;SDS011;17847;31.524;74.366;2022-10-30T16:44:33;175.80;;;103.82;;
31224;SDS011;17847;31.524;74.366;2022-10-30T16:50:13;182.40;;;102.22;;
31224;SDS011;17847;31.524;74.366;2022-10-30T16:56:27;175.70;;;107.45;;
31224;SDS011;17847;31.524;74.366;2022-10-30T16:59:15;180.75;;;105.70;;
31224;SDS011;17847;31.524;74.366;2022-10-30T17:02:26;177.05;;;107.63;;
31224;SDS011;17847;31.524;74.366;2022-10-30T17:05:23;182.55;;;110.97;;
31224;SDS011;17847;31.524;74.366;2022-10-30T17:11:43;181.15;;;106.00;;
31224;SDS011;17847;31.524;74.366;2022-10-30T17:14:21;192.30;;;114.57;;
31224;SDS011;17847;31.524;74.366;2022-10-30T17:17:21;186.23;;;112.75;;
31224;SDS011;17847;31.524;74.366;2022-10-30T17:20:29;184.35;;;112.05;;
31224;SDS011;17847;31.524;74.366;2022-10-30T17:23:25;176.50;;;112.03;;
31224;SDS011;17847;31.524;74.366;2022-10-30T17:26:08;187.88;;;111.22;;
31224;SDS011;17847;31.524;74.366;2022-10-30T17:29:12;187.55;;;110.82;;
31224;SDS011;17847;31.524;74.366;2022-10-30T17:32:42;195.60;;;111.53;;
31224;SDS011;17847;31.524;74.366;2022-10-30T17:35:24;200.43;;;116.20;;
31224;SDS011;17847;31.524;74.366;2022-10-30T17:38:14;192.48;;;117.68;;
31224;SDS011;17847;31.524;74.366;2022-10-30T17:40:49;194.95;;;114.00;;
31224;SDS011;17847;31.524;74.366;2022-10-30T17:43:49;190.27;;;114.90;;
31224;SDS011;17847;31.524;74.366;2022-10-30T17:46:34;200.50;;;115.47;;
31224;SDS011;17847;31.524;74.366;2022-10-30T17:49:25;184.43;;;115.03;;
31224;SDS011;17847;31.524;74.366;2022-10-30T17:52:13;196.95;;;117.65;;
31224;SDS011;17847;31.524;74.366;2022-10-30T17:55:21;205.10;;;120.88;;
31224;SDS011;17847;31.524;74.366;2022-10-30T17:58:06;203.75;;;118.65;;
31224;SDS011;17847;31.524;74.366;2022-10-30T18:00:55;199.85;;;117.72;;
31224;SDS011;17847;31.524;74.366;2022-10-30T18:03:38;193.57;;;119.78;;
31224;SDS011;17847;31.524;74.366;2022-10-30T18:06:27;196.50;;;119.40;;
31224;SDS011;17847;31.524;74.366;2022-10-30T18:09:10;187.45;;;118.15;;
31224;SDS011;17847;31.524;74.366;2022-10-30T18:11:59;206.48;;;121.72;;
31224;SDS011;17847;31.524;74.366;2022-10-30T18:14:42;197.63;;;119.13;;
31224;SDS011;17847;31.524;74.366;2022-10-30T18:17:31;202.52;;;116.70;;
31224;SDS011;17847;31.524;74.366;2022-10-30T18:20:13;199.60;;;115.97;;
31224;SDS011;17847;31.524;74.366;2022-10-30T18:23:02;183.43;;;114.90;;
31224;SDS011;17847;31.524;74.366;2022-10-30T18:26:05;201.57;;;116.18;;
31224;SDS011;17847;31.524;74.366;2022-10-30T18:28:55;194.13;;;115.22;;
31224;SDS011;17847;31.524;74.366;2022-10-30T18:31:44;198.80;;;117.55;;
31224;SDS011;17847;31.524;74.366;2022-10-30T18:34:26;211.13;;;118.13;;
31224;SDS011;17847;31.524;74.366;2022-10-30T18:37:15;196.35;;;116.90;;
31224;SDS011;17847;31.524;74.366;2022-10-30T18:39:57;193.15;;;118.32;;
31224;SDS011;17847;31.524;74.366;2022-10-30T18:42:46;212.90;;;119.53;;
31224;SDS011;17847;31.524;74.366;2022-10-30T18:45:26;196.55;;;118.80;;
31224;SDS011;17847;31.524;74.366;2022-10-30T18:48:30;196.75;;;115.68;;
31224;SDS011;17847;31.524;74.366;2022-10-30T18:51:16;189.50;;;117.40;;
31224;SDS011;17847;31.524;74.366;2022-10-30T18:54:19;195.27;;;118.57;;
31224;SDS011;17847;31.524;74.366;2022-10-30T18:56:55;200.50;;;118.68;;
31224;SDS011;17847;31.524;74.366;2022-10-30T18:59:50;200.23;;;119.82;;
31224;SDS011;17847;31.524;74.366;2022-10-30T19:02:35;201.70;;;120.68;;
31224;SDS011;17847;31.524;74.366;2022-10-30T19:05:25;187.75;;;118.28;;